Paz No Mundo — CURL9 — position and weather

sailwx.info

Track history (hours):
 
Tides and Currents Weather Stations Pressure Air Temp Water Temp Dewpoint Dewpoint Depression Visibility Wind Speed Wind Dir Waves Ship Positions

Paz No Mundo

Last reported at 2018-Jan-24 12:49 UTC. Time now 2018-Feb-20 11:57 UTC.
Position N 39°16' W 009°28'.
Warning: this ship's position is 26 days out of date.

MMSI: 263401740.

Date/timePositionNaut miles runAvg speedWind from/ knotsBaromVisibWave heightAir tempDewpointWater temp
2018-Jan-24 12:49N 39°16' W 009°28'1 1.1
2018-Jan-24 12:18N 39°15' W 009°28'0 1.3
2018-Jan-24 12:00N 39°15' W 009°28'1 1.3
2018-Jan-24 11:23N 39°14' W 009°28'1 1.6
2018-Jan-24 10:56N 39°14' W 009°28'1 1.5
2018-Jan-24 10:30N 39°13' W 009°28'1 1.0
2018-Jan-24 10:00N 39°12' W 009°28'0 0.6
2018-Jan-24 09:30N 39°12' W 009°28'0 0.6
2018-Jan-24 09:00N 39°12' W 009°28'1 1.5
2018-Jan-24 08:30N 39°13' W 009°28'1 1.6
2018-Jan-24 08:00N 39°14' W 009°27'1 1.5
2018-Jan-24 07:30N 39°14' W 009°27'1 1.5
2018-Jan-24 07:00N 39°15' W 009°27'1 1.5
2018-Jan-24 06:29N 39°16' W 009°27'2 4.5
2018-Jan-24 06:00N 39°18' W 009°25'2 0.2
2018-Jan-23 14:21N 39°16' W 009°28'3 7.0
2018-Jan-23 13:51N 39°13' W 009°28'1 3.5
2018-Jan-23 13:29N 39°14' W 009°27'0 0.4
2018-Jan-23 12:51N 39°14' W 009°27'0 0.8
2018-Jan-23 12:29N 39°14' W 009°27'1 1.8
2018-Jan-23 12:00N 39°13' W 009°28'1 1.5
2018-Jan-23 11:30N 39°12' W 009°28'0 0.8
2018-Jan-23 11:00N 39°12' W 009°27'1 1.1
2018-Jan-23 10:30N 39°12' W 009°28'0 0.7
2018-Jan-23 10:00N 39°12' W 009°28'1 1.1
2018-Jan-23 09:30N 39°12' W 009°28'1 1.5
2018-Jan-23 09:00N 39°13' W 009°28'1 1.5
2018-Jan-23 08:30N 39°14' W 009°27'1 1.4
2018-Jan-23 07:59N 39°14' W 009°27'1 1.2
2018-Jan-23 07:18N 39°15' W 009°27'1 1.6
2018-Jan-23 06:56N 39°16' W 009°27'4 0.3
2018-Jan-22 18:03N 39°12' W 009°28'0 5.7
2018-Jan-22 18:00N 39°12' W 009°28'1 1.9
2018-Jan-22 17:30N 39°13' W 009°28'  
Track history (hours):
 
Tides and Currents Weather Stations Pressure Air Temp Water Temp Dewpoint Dewpoint Depression Visibility Wind Speed Wind Dir Waves Ship Positions

Paz No Mundo

Last reported at 2018-Jan-24 12:49 UTC. Time now 2018-Feb-20 11:57 UTC.
Position N 39°16' W 009°28'.
Warning: this ship's position is 26 days out of date.

MMSI: 263401740.

Date/timePositionNaut miles runAvg speedWind from/ knotsBaromVisibWave heightAir tempDewpointWater temp
2018-Jan-24 12:49N 39°16' W 009°28'1 1.1
2018-Jan-24 12:18N 39°15' W 009°28'0 1.3
2018-Jan-24 12:00N 39°15' W 009°28'1 1.3
2018-Jan-24 11:23N 39°14' W 009°28'1 1.6
2018-Jan-24 10:56N 39°14' W 009°28'1 1.5
2018-Jan-24 10:30N 39°13' W 009°28'1 1.0
2018-Jan-24 10:00N 39°12' W 009°28'0 0.6
2018-Jan-24 09:30N 39°12' W 009°28'0 0.6
2018-Jan-24 09:00N 39°12' W 009°28'1 1.5
2018-Jan-24 08:30N 39°13' W 009°28'1 1.6
2018-Jan-24 08:00N 39°14' W 009°27'1 1.5
2018-Jan-24 07:30N 39°14' W 009°27'1 1.5
2018-Jan-24 07:00N 39°15' W 009°27'1 1.5
2018-Jan-24 06:29N 39°16' W 009°27'2 4.5
2018-Jan-24 06:00N 39°18' W 009°25'2 0.2
2018-Jan-23 14:21N 39°16' W 009°28'3 7.0
2018-Jan-23 13:51N 39°13' W 009°28'1 3.5
2018-Jan-23 13:29N 39°14' W 009°27'0 0.4
2018-Jan-23 12:51N 39°14' W 009°27'0 0.8
2018-Jan-23 12:29N 39°14' W 009°27'1 1.8
2018-Jan-23 12:00N 39°13' W 009°28'1 1.5
2018-Jan-23 11:30N 39°12' W 009°28'0 0.8
2018-Jan-23 11:00N 39°12' W 009°27'1 1.1
2018-Jan-23 10:30N 39°12' W 009°28'0 0.7
2018-Jan-23 10:00N 39°12' W 009°28'1 1.1
2018-Jan-23 09:30N 39°12' W 009°28'1 1.5
2018-Jan-23 09:00N 39°13' W 009°28'1 1.5
2018-Jan-23 08:30N 39°14' W 009°27'1 1.4
2018-Jan-23 07:59N 39°14' W 009°27'1 1.2
2018-Jan-23 07:18N 39°15' W 009°27'1 1.6
2018-Jan-23 06:56N 39°16' W 009°27'4 0.3
2018-Jan-22 18:03N 39°12' W 009°28'0 5.7
2018-Jan-22 18:00N 39°12' W 009°28'1 1.9
2018-Jan-22 17:30N 39°13' W 009°28'  

Dump ship's entire track history